Time;durP1;ratioP1;P1;durP2;ratioP2;P2;SDS_P1;SDS_P2;PMS_P1;PMS_P2;Temp;Humidity;BMP_temperature;BMP_pressure;BME280_temperature;BME280_humidity;BME280_pressure;Samples;Min_cycle;Max_cycle;Signal;HPM_P1;HPM_P2
2023/03/19 11:18:27;;;;;;;3.03;1.07;;;15.40;99.90;;;;;;3289836;27;20245;-74
2023/03/19 11:20:58;;;;;;;4.97;0.83;;;15.20;99.90;;;;;;4912913;29;20219;-78
2023/03/19 11:23:28;;;;;;;2.03;0.83;;;15.20;99.90;;;;;;4917220;29;20663;-72
2023/03/19 11:26:00;;;;;;;3.03;0.90;;;15.40;99.90;;;;;;4916770;29;20216;-74
2023/03/19 11:28:32;;;;;;;2.87;0.80;;;15.50;99.90;;;;;;4916939;29;20213;-73
2023/03/19 11:31:07;;;;;;;2.50;0.80;;;15.70;99.90;;;;;;4917096;29;20245;-73
2023/03/19 11:34:10;;;;;;;4.17;1.50;;;15.80;99.90;;;;;;4917026;29;20229;-72
2023/03/19 11:36:48;;;;;;;5.83;1.33;;;15.80;99.90;;;;;;4888316;29;20573;-75
2023/03/19 11:39:24;;;;;;;2.73;1.13;;;16.00;99.90;;;;;;4897751;29;20218;-72
2023/03/19 11:42:05;;;;;;;3.90;1.27;;;15.90;99.90;;;;;;4896748;29;20238;-73
2023/03/19 11:44:41;;;;;;;5.17;1.57;;;15.90;99.90;;;;;;4903268;29;20288;-73
2023/03/19 11:47:13;;;;;;;5.97;1.77;;;15.80;99.90;;;;;;4916577;29;20205;-72
2023/03/19 11:49:54;;;;;;;4.53;1.83;;;15.70;99.90;;;;;;4916795;29;20214;-72
2023/03/19 11:52:29;;;;;;;4.63;2.03;;;15.50;99.90;;;;;;4916988;29;20218;-73
2023/03/19 11:55:10;;;;;;;7.00;2.63;;;15.10;99.90;;;;;;4916706;29;20292;-73
2023/03/19 11:57:55;;;;;;;6.10;2.20;;;15.00;99.90;;;;;;4917025;29;20205;-75
2023/03/19 12:00:30;;;;;;;7.30;1.97;;;15.20;99.90;;;;;;4916935;29;20244;-72
2023/03/19 12:03:24;;;;;;;5.53;2.10;;;15.10;99.90;;;;;;4916468;29;20284;-72
2023/03/19 12:05:57;;;;;;;2.97;1.77;;;14.90;99.90;;;;;;4916773;29;20736;-73
2023/03/19 12:08:33;;;;;;;4.53;2.20;;;14.70;99.90;;;;;;4916636;29;20292;-72
2023/03/19 12:11:23;;;;;;;2.80;1.53;;;14.70;99.90;;;;;;4916897;29;20212;-73
2023/03/19 12:14:02;;;;;;;3.17;1.90;;;14.80;99.90;;;;;;4916649;29;20230;-73
2023/03/19 12:16:42;;;;;;;5.73;1.83;;;15.10;99.90;;;;;;4916447;29;20664;-72
2023/03/19 12:19:45;;;;;;;4.03;1.40;;;15.20;99.90;;;;;;4917755;29;20252;-73
2023/03/19 12:22:22;;;;;;;2.50;1.60;;;15.30;99.90;;;;;;4920167;29;20288;-73
2023/03/19 12:25:04;;;;;;;3.80;1.50;;;15.70;99.90;;;;;;4920390;29;20315;-74
2023/03/19 12:27:36;;;;;;;3.13;1.30;;;15.90;99.90;;;;;;4920079;29;20213;-74
2023/03/19 12:30:15;;;;;;;4.73;1.63;;;16.00;99.90;;;;;;4919920;29;20217;-75
2023/03/19 12:33:02;;;;;;;2.73;1.60;;;16.10;99.90;;;;;;4920299;29;20723;-74
2023/03/19 12:35:33;;;;;;;4.47;1.53;;;16.10;99.90;;;;;;4917832;29;20209;-74
2023/03/19 12:38:08;;;;;;;3.37;1.93;;;16.50;99.90;;;;;;4920174;29;20213;-74
2023/03/19 12:40:40;;;;;;;3.80;1.60;;;16.50;99.90;;;;;;4920436;29;20209;-74
2023/03/19 12:43:17;;;;;;;5.90;1.37;;;16.60;99.90;;;;;;4920300;29;20240;-74
2023/03/19 12:45:47;;;;;;;1.90;1.10;;;16.50;99.90;;;;;;4919994;29;20572;-75
2023/03/19 12:48:18;;;;;;;2.57;1.17;;;16.70;99.90;;;;;;4920241;29;20213;-74
2023/03/19 12:50:50;;;;;;;2.40;1.37;;;16.60;99.90;;;;;;4920184;29;20210;-75
2023/03/19 12:53:28;;;;;;;2.70;1.20;;;16.60;99.90;;;;;;4920003;29;20323;-71
2023/03/19 12:55:58;;;;;;;3.53;1.83;;;16.60;99.90;;;;;;4919984;29;20206;-73
2023/03/19 12:58:37;;;;;;;6.47;1.70;;;16.80;99.90;;;;;;4919664;29;20292;-74
2023/03/19 13:01:08;;;;;;;6.83;2.17;;;16.50;99.90;;;;;;4920143;29;20213;-75
2023/03/19 13:03:43;;;;;;;5.53;2.20;;;16.70;99.90;;;;;;4919379;29;20246;-74
2023/03/19 13:06:18;;;;;;;3.93;2.17;;;16.60;99.90;;;;;;4919630;29;20248;-74
2023/03/19 13:08:50;;;;;;;5.33;2.23;;;16.40;99.90;;;;;;4919742;29;20241;-74
2023/03/19 13:11:29;;;;;;;3.90;2.13;;;16.40;99.90;;;;;;4919946;29;20222;-75
2023/03/19 13:14:01;;;;;;;4.53;2.30;;;16.20;99.90;;;;;;4919741;29;20252;-73
2023/03/19 13:16:36;;;;;;;6.27;3.00;;;16.20;99.90;;;;;;4919811;29;20215;-74
2023/03/19 13:19:13;;;;;;;6.30;2.23;;;16.30;99.90;;;;;;4919259;29;20221;-74
2023/03/19 13:21:42;;;;;;;4.77;2.23;;;16.40;99.90;;;;;;4919619;29;20211;-74
2023/03/19 13:24:19;;;;;;;4.37;2.40;;;16.40;99.90;;;;;;4908779;29;20230;-74
2023/03/19 13:26:48;;;;;;;3.10;1.23;;;16.30;99.90;;;;;;4917239;29;20625;-73
2023/03/19 13:29:20;;;;;;;3.10;1.87;;;16.30;99.90;;;;;;4920472;29;20222;-72
2023/03/19 13:31:47;;;;;;;3.40;1.60;;;16.40;99.90;;;;;;4918990;29;20300;-72
2023/03/19 13:34:21;;;;;;;4.13;2.10;;;16.40;99.90;;;;;;4914325;29;20229;-72
2023/03/19 13:36:53;;;;;;;5.50;2.30;;;16.40;99.90;;;;;;4918809;29;20210;-69
2023/03/19 13:39:27;;;;;;;4.10;2.30;;;16.30;99.90;;;;;;4914790;29;21153;-69
2023/03/19 13:42:06;;;;;;;4.60;2.53;;;16.10;99.90;;;;;;4919678;29;20233;-69
2023/03/19 13:44:38;;;;;;;6.00;2.80;;;15.90;99.90;;;;;;4917439;29;20233;-68
2023/03/19 13:47:43;;;;;;;8.53;2.93;;;15.90;99.90;;;;;;4918203;29;20210;-68
2023/03/19 13:50:29;;;;;;;6.17;3.00;;;15.90;99.90;;;;;;4918761;29;20217;-68
2023/03/19 13:53:12;;;;;;;5.67;3.00;;;15.70;99.90;;;;;;4918522;29;20209;-68
2023/03/19 13:55:52;;;;;;;7.07;2.80;;;15.40;99.90;;;;;;4918428;29;20244;-69
2023/03/19 14:01:10;;;;;;;6.70;3.23;;;15.30;99.90;;;;;;4918464;29;20212;-69
2023/03/19 14:03:40;;;;;;;5.33;3.20;;;15.40;99.90;;;;;;4917671;29;20689;-70
2023/03/19 14:06:32;;;;;;;6.27;3.07;;;15.70;99.90;;;;;;4918403;29;20209;-68
2023/03/19 14:08:59;;;;;;;4.80;2.57;;;15.90;99.90;;;;;;4918174;29;20220;-68
2023/03/19 14:11:31;;;;;;;6.37;2.50;;;15.90;99.90;;;;;;4918219;29;20661;-76
2023/03/19 14:14:02;;;;;;;3.60;2.63;;;16.00;99.90;;;;;;4918064;29;20241;-76
2023/03/19 14:16:33;;;;;;;3.57;2.30;;;16.00;99.90;;;;;;4918453;29;20214;-72
2023/03/19 14:19:02;;;;;;;3.90;2.60;;;16.10;99.90;;;;;;4918221;29;20214;-77
2023/03/19 14:21:34;;;;;;;4.07;2.30;;;16.10;99.90;;;;;;4918400;29;20703;-79
2023/03/19 14:24:38;;;;;;;4.03;2.40;;;15.90;99.90;;;;;;4918299;29;20324;-78
2023/03/19 14:27:15;;;;;;;4.13;2.17;;;15.90;99.90;;;;;;4914460;29;20245;-75
2023/03/19 14:29:44;;;;;;;5.20;2.07;;;15.60;99.90;;;;;;4918287;29;20573;-79
2023/03/19 14:32:17;;;;;;;3.67;1.80;;;15.40;99.90;;;;;;4918102;29;20304;-79
2023/03/19 14:34:46;;;;;;;3.50;2.03;;;15.40;99.90;;;;;;4917971;29;20240;-76
2023/03/19 14:37:21;;;;;;;5.03;2.30;;;15.10;99.90;;;;;;4913086;29;20209;-70
2023/03/19 14:39:54;;;;;;;4.27;1.70;;;15.10;99.90;;;;;;4918009;29;20215;-69
2023/03/19 14:42:26;;;;;;;3.30;1.70;;;14.90;99.90;;;;;;4917531;29;20245;-69
2023/03/19 14:45:31;;;;;;;4.63;1.97;;;14.80;99.90;;;;;;4917258;29;20229;-68
2023/03/19 14:48:31;;;;;;;4.93;2.10;;;14.80;99.90;;;;;;4917432;29;20213;-68
2023/03/19 14:51:21;;;;;;;3.60;2.13;;;14.70;99.90;;;;;;4917510;29;20687;-67
2023/03/19 14:53:52;;;;;;;4.70;2.43;;;14.50;99.90;;;;;;4917579;29;20229;-68
2023/03/19 14:56:21;;;;;;;4.47;2.60;;;14.60;99.90;;;;;;4917934;29;20220;-68
2023/03/19 14:58:52;;;;;;;5.43;2.10;;;14.70;99.90;;;;;;4917493;29;20658;-68
2023/03/19 15:01:20;;;;;;;3.10;2.17;;;14.70;99.90;;;;;;4917256;29;20214;-68
2023/03/19 15:03:53;;;;;;;3.93;1.93;;;14.70;99.90;;;;;;4916957;29;20244;-68
2023/03/19 15:06:20;;;;;;;3.63;2.20;;;14.70;99.90;;;;;;4917578;29;20304;-69
2023/03/19 15:08:50;;;;;;;4.57;2.23;;;14.60;99.90;;;;;;4917419;29;20300;-68
2023/03/19 15:11:44;;;;;;;2.87;1.67;;;14.60;99.90;;;;;;4917414;29;20210;-67
2023/03/19 15:14:28;;;;;;;2.70;1.77;;;14.70;99.90;;;;;;4917118;29;20248;-68
2023/03/19 15:17:06;;;;;;;2.77;1.80;;;14.50;99.90;;;;;;4917454;29;20216;-67
2023/03/19 15:19:35;;;;;;;3.10;1.87;;;14.50;99.90;;;;;;4916931;29;20205;-68
2023/03/19 15:22:11;;;;;;;3.73;1.97;;;14.60;99.90;;;;;;4917014;29;20216;-68
2023/03/19 15:24:38;;;;;;;3.30;2.07;;;14.40;99.90;;;;;;4915955;29;20239;-68
2023/03/19 15:27:17;;;;;;;2.60;1.60;;;14.10;99.90;;;;;;4916721;29;20217;-69
2023/03/19 15:29:45;;;;;;;1.80;1.30;;;14.00;99.90;;;;;;4916897;29;20236;-69
2023/03/19 15:32:12;;;;;;;2.03;1.10;;;13.70;99.90;;;;;;4916847;29;20221;-69
2023/03/19 15:34:40;;;;;;;2.07;1.10;;;13.50;99.90;;;;;;4916664;29;20234;-69
2023/03/19 15:37:10;;;;;;;2.10;1.00;;;13.40;99.90;;;;;;4916801;29;20218;-69
2023/03/19 15:39:43;;;;;;;2.70;1.10;;;13.40;99.90;;;;;;4917139;29;20210;-71
2023/03/19 15:42:10;;;;;;;2.17;1.20;;;13.30;99.90;;;;;;4916980;29;20210;-69
2023/03/19 15:44:50;;;;;;;1.90;1.07;;;13.20;99.90;;;;;;4916429;29;20248;-68
2023/03/19 15:47:22;;;;;;;1.37;0.90;;;13.20;99.90;;;;;;4916920;29;20292;-68
2023/03/19 15:49:53;;;;;;;1.67;1.23;;;13.00;99.90;;;;;;4916738;29;20210;-69
2023/03/19 15:52:20;;;;;;;1.83;1.17;;;12.90;99.90;;;;;;4916673;29;20212;-68
2023/03/19 15:54:48;;;;;;;3.67;1.23;;;12.80;99.90;;;;;;4915930;29;20233;-69
2023/03/19 15:57:17;;;;;;;3.07;1.40;;;12.70;99.90;;;;;;4916631;29;20209;-69
2023/03/19 15:59:45;;;;;;;6.13;1.77;;;12.70;99.90;;;;;;4916315;29;20239;-70
2023/03/19 16:02:23;;;;;;;1.47;1.23;;;12.60;99.90;;;;;;4917066;29;20213;-68
2023/03/19 16:04:50;;;;;;;4.60;1.67;;;12.40;99.90;;;;;;4916471;29;20230;-68
2023/03/19 16:07:39;;;;;;;3.90;2.27;;;12.30;99.90;;;;;;4916624;29;20216;-68
2023/03/19 16:10:34;;;;;;;1.77;1.30;;;12.60;99.90;;;;;;4916151;29;20217;-70
2023/03/19 16:13:03;;;;;;;2.20;1.50;;;12.60;99.90;;;;;;4916595;29;20221;-69
2023/03/19 16:15:37;;;;;;;3.93;1.60;;;12.40;99.90;;;;;;4916526;29;20582;-70
2023/03/19 16:21:14;;;;;;;3.73;1.50;;;12.20;99.90;;;;;;5119300;27;20555;-68
2023/03/19 16:23:44;;;;;;;2.83;1.70;;;12.20;99.90;;;;;;5110009;28;20267;-67
2023/03/19 16:26:21;;;;;;;2.97;1.73;;;12.10;99.90;;;;;;5110559;28;20212;-68
2023/03/19 16:28:57;;;;;;;4.60;1.83;;;11.90;99.90;;;;;;5110166;28;20224;-67
2023/03/19 16:31:28;;;;;;;3.53;1.70;;;11.90;99.90;;;;;;5110359;28;20197;-68
2023/03/19 16:33:56;;;;;;;4.77;1.97;;;11.90;99.90;;;;;;5109887;28;20222;-67
2023/03/19 16:36:29;;;;;;;4.47;1.77;;;11.90;99.90;;;;;;5110190;28;20247;-68
2023/03/19 16:38:58;;;;;;;3.50;1.87;;;11.80;99.90;;;;;;5110109;28;20202;-68
2023/03/19 16:41:32;;;;;;;3.17;1.60;;;11.80;99.90;;;;;;5110132;28;20205;-72
2023/03/19 16:44:16;;;;;;;4.67;2.13;;;11.90;99.90;;;;;;5109884;28;20236;-73
2023/03/19 16:46:43;;;;;;;4.07;2.10;;;11.90;99.90;;;;;;5109830;28;20729;-76
2023/03/19 16:49:10;;;;;;;4.33;2.00;;;11.80;99.90;;;;;;5110203;28;20210;-70
2023/03/19 16:51:39;;;;;;;2.60;1.90;;;11.70;99.90;;;;;;5110130;28;20559;-69
2023/03/19 16:54:06;;;;;;;2.77;1.80;;;11.70;99.90;;;;;;5110162;28;20576;-74
2023/03/19 16:56:33;;;;;;;3.13;1.83;;;11.70;99.90;;;;;;5110218;28;20227;-70
2023/03/19 16:59:03;;;;;;;5.40;1.90;;;11.70;99.90;;;;;;5109785;28;20663;-67
2023/03/19 17:01:30;;;;;;;3.20;2.23;;;11.60;99.90;;;;;;5109743;28;20664;-68
2023/03/19 17:03:57;;;;;;;4.37;1.90;;;11.60;99.90;;;;;;5109172;28;20261;-68
2023/03/19 17:06:28;;;;;;;5.07;2.00;;;11.50;99.90;;;;;;5109786;28;20202;-68
2023/03/19 17:08:56;;;;;;;3.07;1.83;;;11.40;99.90;;;;;;5109807;28;20602;-67
2023/03/19 17:11:28;;;;;;;3.17;1.60;;;11.30;99.90;;;;;;5109714;28;20208;-68
2023/03/19 17:13:57;;;;;;;3.97;1.93;;;11.30;99.90;;;;;;5109502;28;20222;-67
2023/03/19 17:16:25;;;;;;;2.83;1.53;;;11.30;99.90;;;;;;5109311;28;20206;-68
2023/03/19 17:18:52;;;;;;;3.03;1.60;;;11.30;99.90;;;;;;5109379;28;20209;-68
2023/03/19 17:21:23;;;;;;;5.80;2.03;;;11.20;99.90;;;;;;5109629;28;20297;-68
2023/03/19 17:23:51;;;;;;;7.33;2.00;;;11.30;99.90;;;;;;5108959;28;20246;-67
2023/03/19 17:26:21;;;;;;;3.33;1.63;;;11.30;99.90;;;;;;5109388;28;20212;-72
2023/03/19 17:28:48;;;;;;;6.27;2.00;;;11.30;99.90;;;;;;5109309;28;20531;-73
2023/03/19 17:31:21;;;;;;;2.20;1.40;;;11.20;99.90;;;;;;5102020;28;20664;-68
2023/03/19 17:33:48;;;;;;;4.10;1.50;;;11.20;99.90;;;;;;5095400;28;20226;-68
2023/03/19 17:36:15;;;;;;;3.93;1.40;;;11.10;99.90;;;;;;5095785;28;20206;-77
2023/03/19 17:38:42;;;;;;;3.03;1.40;;;11.00;99.90;;;;;;5095735;28;20297;-77
2023/03/19 17:41:14;;;;;;;4.00;1.33;;;11.00;99.90;;;;;;5095324;28;20226;-74
2023/03/19 17:43:42;;;;;;;6.00;1.87;;;10.90;99.90;;;;;;5095138;28;20222;-72
2023/03/19 17:46:12;;;;;;;4.47;1.50;;;11.00;99.90;;;;;;5095758;28;20206;-76
2023/03/19 17:48:39;;;;;;;3.50;1.33;;;10.90;99.90;;;;;;5095182;28;20243;-68
2023/03/19 17:51:06;;;;;;;2.33;1.30;;;10.80;99.90;;;;;;5095570;28;20209;-71
2023/03/19 17:53:33;;;;;;;1.90;1.20;;;10.70;99.90;;;;;;5095024;28;20688;-69
2023/03/19 17:56:00;;;;;;;3.63;1.50;;;10.80;99.90;;;;;;5095043;28;20213;-74
2023/03/19 17:58:27;;;;;;;2.30;1.27;;;10.80;99.90;;;;;;5095183;28;20203;-72
2023/03/19 18:00:55;;;;;;;2.23;1.40;;;10.80;99.90;;;;;;5095054;28;20280;-74
2023/03/19 18:03:24;;;;;;;4.57;1.73;;;10.70;99.90;;;;;;5094873;28;20643;-69
2023/03/19 18:05:51;;;;;;;3.07;1.83;;;10.90;99.90;;;;;;5095149;28;20200;-75
2023/03/19 18:08:22;;;;;;;8.40;1.80;;;10.90;99.90;;;;;;5094840;28;20206;-75
2023/03/19 18:10:49;;;;;;;5.63;1.43;;;10.90;99.90;;;;;;5094875;28;20228;-75
2023/03/19 18:13:16;;;;;;;2.97;1.40;;;10.90;99.90;;;;;;5094934;28;20226;-76
2023/03/19 18:15:44;;;;;;;2.00;1.20;;;10.90;99.90;;;;;;5094471;28;20203;-69
2023/03/19 18:18:17;;;;;;;3.80;1.60;;;10.90;99.90;;;;;;5094583;28;20207;-69
2023/03/19 18:20:45;;;;;;;2.17;1.50;;;10.80;99.90;;;;;;5088959;28;20735;-71
2023/03/19 18:23:14;;;;;;;6.27;1.60;;;10.70;99.90;;;;;;5092429;28;20227;-71
2023/03/19 18:25:42;;;;;;;4.30;1.90;;;10.80;99.90;;;;;;5093654;28;20297;-71
2023/03/19 18:28:09;;;;;;;3.37;1.50;;;10.90;99.90;;;;;;5093088;28;20686;-70
2023/03/19 18:30:38;;;;;;;3.57;1.30;;;10.80;99.90;;;;;;5083249;28;20203;-71
2023/03/19 18:33:07;;;;;;;4.83;1.87;;;10.70;99.90;;;;;;5072868;28;20203;-79
2023/03/19 18:35:38;;;;;;;2.13;1.40;;;10.70;99.90;;;;;;5074599;28;20215;-76
2023/03/19 18:38:13;;;;;;;5.30;1.60;;;10.60;99.90;;;;;;5074884;28;20199;-73
2023/03/19 18:40:40;;;;;;;4.10;1.47;;;10.70;99.90;;;;;;5074638;28;20230;-77
2023/03/19 18:43:09;;;;;;;8.03;2.17;;;10.70;99.90;;;;;;5073514;28;20204;-77
2023/03/19 18:45:36;;;;;;;2.87;1.67;;;10.60;99.90;;;;;;5074519;28;20286;-76
2023/03/19 18:48:06;;;;;;;2.93;1.73;;;10.60;99.90;;;;;;5074418;28;20211;-78
2023/03/19 18:50:34;;;;;;;2.40;1.57;;;10.50;99.90;;;;;;5074166;28;20676;-76
2023/03/19 18:53:01;;;;;;;6.60;1.80;;;10.60;99.90;;;;;;5074429;28;20214;-80
2023/03/19 18:55:30;;;;;;;5.03;1.77;;;10.60;99.90;;;;;;5074174;28;20214;-79
2023/03/19 18:58:00;;;;;;;3.67;1.40;;;10.60;99.90;;;;;;5074047;28;20610;-75
2023/03/19 19:00:29;;;;;;;1.97;1.17;;;10.60;99.90;;;;;;5074035;28;20250;-77
2023/03/19 19:02:57;;;;;;;2.87;1.70;;;10.60;99.90;;;;;;5073899;28;20665;-79
2023/03/19 19:05:26;;;;;;;2.87;1.30;;;10.60;99.90;;;;;;5073829;28;20654;-77
2023/03/19 19:07:55;;;;;;;6.17;1.53;;;10.60;99.90;;;;;;5074073;28;20199;-78
2023/03/19 19:10:23;;;;;;;2.43;1.33;;;10.60;99.90;;;;;;5073785;28;20207;-79
2023/03/19 19:12:53;;;;;;;3.13;1.40;;;10.60;99.90;;;;;;5073917;28;20570;-75
2023/03/19 19:15:23;;;;;;;4.47;1.37;;;10.60;99.90;;;;;;5073848;28;20226;-73
2023/03/19 19:17:51;;;;;;;3.27;1.40;;;10.60;99.90;;;;;;5073644;28;20203;-77
2023/03/19 19:20:19;;;;;;;2.10;1.27;;;10.70;99.90;;;;;;5073431;28;20226;-75
2023/03/19 19:22:46;;;;;;;4.33;1.37;;;10.60;99.90;;;;;;5073715;28;20286;-75
2023/03/19 19:25:19;;;;;;;4.23;1.37;;;10.60;99.90;;;;;;5073560;28;20223;-78
2023/03/19 19:27:49;;;;;;;2.00;1.20;;;10.50;99.90;;;;;;5073606;28;20261;-75
2023/03/19 19:30:18;;;;;;;3.50;1.30;;;10.70;99.90;;;;;;5074204;28;20222;-76
2023/03/19 19:32:45;;;;;;;1.67;1.07;;;10.70;99.90;;;;;;5073570;28;20223;-77
2023/03/19 19:35:19;;;;;;;4.80;1.57;;;10.70;99.90;;;;;;5073171;28;20228;-76
2023/03/19 19:37:48;;;;;;;2.17;1.17;;;10.60;99.90;;;;;;5074482;28;20260;-74
2023/03/19 19:40:20;;;;;;;2.80;1.27;;;10.60;99.90;;;;;;5074760;28;20235;-74
2023/03/19 19:42:51;;;;;;;2.83;1.20;;;10.50;99.90;;;;;;5076479;28;20203;-75
2023/03/19 19:45:28;;;;;;;2.70;1.50;;;10.40;99.90;;;;;;5077626;28;20237;-81
2023/03/19 19:47:57;;;;;;;4.23;1.80;;;10.50;99.90;;;;;;5076842;28;20199;-75
2023/03/19 19:50:25;;;;;;;3.13;1.27;;;10.60;99.90;;;;;;5077704;28;20199;-76
2023/03/19 19:52:53;;;;;;;4.77;1.53;;;10.60;99.90;;;;;;5072985;28;20203;-74
2023/03/19 19:55:22;;;;;;;3.13;1.30;;;10.50;99.90;;;;;;5072785;28;20203;-80
2023/03/19 19:57:49;;;;;;;3.63;1.20;;;10.40;99.90;;;;;;5072904;28;20666;-76
2023/03/19 20:00:20;;;;;;;4.20;1.50;;;10.40;99.90;;;;;;5072765;28;20698;-78
2023/03/19 20:02:46;;;;;;;3.47;1.53;;;10.40;99.90;;;;;;5073014;28;20210;-81
2023/03/19 20:05:20;;;;;;;3.53;1.30;;;10.30;99.90;;;;;;5072389;28;20223;-79
2023/03/19 20:07:48;;;;;;;2.67;1.47;;;10.50;99.90;;;;;;5073023;28;20210;-73
2023/03/19 20:10:15;;;;;;;2.33;1.07;;;10.50;99.90;;;;;;5073230;28;20253;-79
2023/03/19 20:12:46;;;;;;;2.57;0.97;;;10.40;99.90;;;;;;5072964;28;20672;-77
2023/03/19 20:15:18;;;;;;;3.63;1.43;;;10.30;99.90;;;;;;5072893;28;20309;-76
2023/03/19 20:17:46;;;;;;;2.37;1.20;;;10.10;99.90;;;;;;5072688;28;20225;-79
2023/03/19 20:20:19;;;;;;;3.10;1.60;;;10.10;99.90;;;;;;5072421;28;20262;-80
2023/03/19 20:22:48;;;;;;;3.50;1.40;;;10.00;99.90;;;;;;5072825;28;20225;-77
2023/03/19 20:25:15;;;;;;;2.73;1.60;;;9.90;99.90;;;;;;5072986;28;20200;-81
2023/03/19 20:27:45;;;;;;;1.90;1.23;;;9.90;99.90;;;;;;5072784;28;20211;-80
2023/03/19 20:30:21;;;;;;;4.90;1.30;;;9.90;99.90;;;;;;5073317;28;20211;-75
2023/03/19 20:32:49;;;;;;;2.17;1.33;;;10.00;99.90;;;;;;5072860;28;20203;-77
2023/03/19 20:35:19;;;;;;;1.80;1.13;;;9.90;99.90;;;;;;5072795;28;20735;-76
2023/03/19 20:37:46;;;;;;;2.90;1.27;;;9.90;99.90;;;;;;5072778;28;20203;-80
2023/03/19 20:40:14;;;;;;;2.87;1.53;;;10.00;99.90;;;;;;5072522;28;20263;-74
2023/03/19 20:42:43;;;;;;;3.10;1.53;;;9.90;99.90;;;;;;5072663;28;20286;-76
2023/03/19 20:45:18;;;;;;;2.67;1.57;;;10.00;99.90;;;;;;5072865;28;20227;-79
2023/03/19 20:47:45;;;;;;;3.73;1.40;;;10.00;99.90;;;;;;5073461;28;20211;-78
2023/03/19 20:50:22;;;;;;;2.90;1.70;;;10.00;99.90;;;;;;5072541;28;20200;-79
2023/03/19 20:52:50;;;;;;;6.43;2.10;;;9.80;99.90;;;;;;5072545;28;20290;-80
2023/03/19 20:55:19;;;;;;;4.80;1.60;;;9.80;99.90;;;;;;5072486;28;20290;-80
2023/03/19 20:57:49;;;;;;;5.27;2.00;;;9.70;99.90;;;;;;5072650;28;20203;-79
2023/03/19 21:00:24;;;;;;;2.90;1.90;;;9.60;99.90;;;;;;5072565;28;20253;-79
2023/03/19 21:02:52;;;;;;;3.07;1.60;;;9.60;99.90;;;;;;5072135;28;20218;-79
2023/03/19 21:05:19;;;;;;;3.87;1.90;;;9.60;99.90;;;;;;5072333;28;20203;-79
2023/03/19 21:07:48;;;;;;;4.67;1.93;;;9.40;99.90;;;;;;5075724;28;20203;-80
2023/03/19 21:10:27;;;;;;;3.80;1.70;;;9.40;99.90;;;;;;5076223;28;20214;-81
2023/03/19 21:12:54;;;;;;;9.27;2.10;;;9.40;99.90;;;;;;5076105;28;20207;-77
2023/03/19 21:15:22;;;;;;;5.50;1.80;;;9.40;99.90;;;;;;5076330;28;20199;-80
2023/03/19 21:17:49;;;;;;;3.10;1.90;;;9.20;99.90;;;;;;5075922;28;20204;-80
2023/03/19 21:20:18;;;;;;;5.27;2.40;;;9.20;99.90;;;;;;5075604;28;20211;-76
2023/03/19 21:22:47;;;;;;;4.57;2.00;;;9.10;99.90;;;;;;5075724;28;20553;-79
2023/03/19 21:25:19;;;;;;;5.83;2.20;;;9.10;99.90;;;;;;5075790;28;20227;-76
2023/03/19 21:27:49;;;;;;;4.93;2.13;;;8.90;99.90;;;;;;5075764;28;20214;-77
2023/03/19 21:30:18;;;;;;;7.87;2.50;;;8.90;99.90;;;;;;5075654;28;20226;-79
2023/03/19 21:32:46;;;;;;;5.77;2.20;;;8.80;99.90;;;;;;5075479;28;20203;-75
2023/03/19 21:35:18;;;;;;;5.43;2.03;;;8.70;99.90;;;;;;5075695;28;20245;-77
2023/03/19 21:37:46;;;;;;;6.83;1.80;;;8.60;99.90;;;;;;5075761;28;20616;-80
2023/03/19 21:40:18;;;;;;;4.80;1.90;;;8.50;99.90;;;;;;5075677;28;20290;-78
2023/03/19 21:42:48;;;;;;;6.23;2.17;;;8.40;99.90;;;;;;5075687;28;20214;-81
2023/03/19 21:45:20;;;;;;;7.90;2.00;;;8.30;99.90;;;;;;5075275;28;20620;-81
2023/03/19 21:47:48;;;;;;;4.30;1.90;;;8.20;99.90;;;;;;5075574;28;20203;-81
2023/03/19 21:50:18;;;;;;;7.20;2.20;;;8.30;99.90;;;;;;5075325;28;20206;-81
2023/03/19 21:52:45;;;;;;;6.73;2.20;;;8.20;99.90;;;;;;5077430;28;20219;-73
2023/03/19 21:55:17;;;;;;;4.70;2.33;;;8.10;99.90;;;;;;5074652;28;20589;-79
2023/03/19 21:57:45;;;;;;;3.63;2.17;;;7.90;99.90;;;;;;5075247;28;20509;-78
2023/03/19 22:00:17;;;;;;;5.20;1.90;;;7.80;99.90;;;;;;5075024;28;20210;-81
2023/03/19 22:02:46;;;;;;;3.60;1.90;;;7.70;99.90;;;;;;5075041;28;20203;-75
2023/03/19 22:05:21;;;;;;;9.17;2.20;;;7.60;99.90;;;;;;5074850;28;20582;-82
2023/03/19 22:07:48;;;;;;;4.67;2.10;;;7.60;99.90;;;;;;5075058;28;20199;-81
2023/03/19 22:10:16;;;;;;;7.40;2.20;;;7.60;99.90;;;;;;5075083;28;20211;-81
2023/03/19 22:12:43;;;;;;;7.60;2.40;;;7.50;99.90;;;;;;5074976;28;20557;-80
2023/03/19 22:15:29;;;;;;;5.63;2.30;;;7.40;99.90;;;;;;5075155;28;20228;-74
2023/03/19 22:17:58;;;;;;;7.67;2.43;;;7.40;99.90;;;;;;5074754;28;20285;-81
2023/03/19 22:20:26;;;;;;;5.20;2.20;;;7.40;99.90;;;;;;5074598;28;20215;-80
2023/03/19 22:22:54;;;;;;;6.30;2.30;;;7.40;99.90;;;;;;5074818;28;20218;-79
2023/03/19 22:25:22;;;;;;;3.33;2.10;;;7.40;99.90;;;;;;5074842;28;20654;-74
2023/03/19 22:27:50;;;;;;;4.17;2.50;;;7.40;99.90;;;;;;5075196;28;20211;-81
2023/03/19 22:30:26;;;;;;;5.43;2.63;;;7.40;99.90;;;;;;5074593;28;20207;-81
2023/03/19 22:32:55;;;;;;;5.93;2.40;;;7.30;99.90;;;;;;5074453;28;20256;-77
2023/03/19 22:35:22;;;;;;;5.73;2.40;;;7.20;99.90;;;;;;5074575;28;20207;-81
2023/03/19 22:37:50;;;;;;;6.50;2.80;;;7.20;99.90;;;;;;5074570;28;20203;-81
2023/03/19 22:40:18;;;;;;;5.83;2.80;;;7.10;99.90;;;;;;5074600;28;20200;-81
